Time;durP1;ratioP1;P1;durP2;ratioP2;P2;SDS_P1;SDS_P2;PMS_P1;PMS_P2;Temp;Humidity;BMP_temperature;BMP_pressure;BME280_temperature;BME280_humidity;BME280_pressure;Samples;Min_cycle;Max_cycle;Signal;HPM_P1;HPM_P2
2023/03/30 15:57:29;;;;;;;7.70;1.80;;;16.30;91.10;;;;;;5088961;28;20660;-60
2023/03/30 16:00:01;;;;;;;9.50;2.00;;;16.10;92.60;;;;;;5088014;28;20119;-60
2023/03/30 16:02:45;;;;;;;10.80;2.25;;;16.10;92.10;;;;;;5088166;28;20008;-60
2023/03/30 16:05:21;;;;;;;7.53;2.17;;;16.10;92.30;;;;;;5087608;28;20032;-61
2023/03/30 16:07:47;;;;;;;9.60;2.25;;;16.20;92.60;;;;;;5088432;28;20116;-60
2023/03/30 16:10:16;;;;;;;7.65;1.42;;;16.20;91.80;;;;;;5088275;28;20099;-60
2023/03/30 16:12:44;;;;;;;9.40;2.13;;;16.20;90.80;;;;;;5071158;28;20036;-61
2023/03/30 16:15:15;;;;;;;9.05;1.90;;;16.10;90.70;;;;;;5067217;28;20009;-60
2023/03/30 16:17:41;;;;;;;9.77;2.10;;;16.00;91.00;;;;;;5066482;28;20043;-60
2023/03/30 16:20:17;;;;;;;6.60;1.80;;;16.00;91.20;;;;;;5068507;28;20463;-61
2023/03/30 16:22:43;;;;;;;8.18;2.00;;;16.40;90.80;;;;;;5067580;28;20481;-60
2023/03/30 16:25:09;;;;;;;10.25;1.50;;;16.70;90.30;;;;;;5068460;28;20078;-60
2023/03/30 16:27:35;;;;;;;10.98;1.65;;;17.10;87.50;;;;;;5069801;28;20025;-60
2023/03/30 16:30:10;;;;;;;7.68;1.52;;;17.40;87.30;;;;;;5071411;28;20024;-60
2023/03/30 16:32:36;;;;;;;8.88;1.75;;;17.90;83.10;;;;;;5088235;28;20024;-60
2023/03/30 16:35:01;;;;;;;9.65;2.13;;;17.90;83.50;;;;;;5067736;28;20047;-58
2023/03/30 16:37:27;;;;;;;6.80;1.77;;;17.90;81.30;;;;;;5073560;28;20444;-60
2023/03/30 16:39:53;;;;;;;6.55;1.50;;;17.70;81.80;;;;;;5075204;28;20021;-60
2023/03/30 16:42:19;;;;;;;8.15;1.58;;;17.50;82.40;;;;;;5074239;28;20033;-60
2023/03/30 16:44:44;;;;;;;9.30;2.20;;;17.40;81.10;;;;;;5076984;28;20020;-61
2023/03/30 16:47:11;;;;;;;9.00;2.13;;;17.40;82.60;;;;;;5086245;28;20403;-60
2023/03/30 16:49:36;;;;;;;4.65;1.23;;;17.40;81.90;;;;;;5084714;28;20442;-60
2023/03/30 16:52:02;;;;;;;9.90;1.85;;;17.30;82.50;;;;;;5068343;28;20033;-60
2023/03/30 16:54:28;;;;;;;6.72;1.95;;;17.20;82.40;;;;;;5067482;28;20524;-60
2023/03/30 16:56:53;;;;;;;6.72;1.73;;;17.00;82.60;;;;;;5082993;28;20053;-60
2023/03/30 16:59:24;;;;;;;6.03;2.25;;;17.00;84.00;;;;;;5102709;28;20460;-60
2023/03/30 17:01:51;;;;;;;6.45;1.70;;;17.40;83.80;;;;;;5088701;28;20060;-60
2023/03/30 17:04:17;;;;;;;7.70;1.95;;;17.80;82.80;;;;;;5087887;28;20021;-60
2023/03/30 17:06:42;;;;;;;7.85;2.33;;;17.80;80.20;;;;;;5086704;28;20028;-59
2023/03/30 17:09:13;;;;;;;6.65;1.90;;;17.50;80.30;;;;;;5073689;28;20107;-60
2023/03/30 17:11:38;;;;;;;6.47;2.35;;;17.10;79.80;;;;;;5093527;28;20032;-61
2023/03/30 17:14:04;;;;;;;4.78;1.52;;;16.80;80.30;;;;;;5093583;28;20021;-62
2023/03/30 17:16:30;;;;;;;5.60;2.40;;;16.50;81.30;;;;;;5093515;28;20088;-58
2023/03/30 17:18:56;;;;;;;5.80;1.45;;;16.20;82.80;;;;;;5058730;28;20115;-61
2023/03/30 17:21:21;;;;;;;5.05;1.70;;;16.00;83.70;;;;;;5076020;28;20480;-60
2023/03/30 17:23:48;;;;;;;6.22;2.10;;;15.70;85.50;;;;;;5075368;28;20431;-61
2023/03/30 17:26:15;;;;;;;5.72;1.60;;;15.50;86.70;;;;;;5072992;28;20473;-60
2023/03/30 17:28:41;;;;;;;9.27;2.03;;;15.40;87.70;;;;;;5074547;28;20020;-60
2023/03/30 17:31:16;;;;;;;11.60;2.00;;;15.30;88.90;;;;;;5073876;28;20056;-60
2023/03/30 17:33:41;;;;;;;5.25;1.70;;;15.10;89.60;;;;;;5072758;28;20021;-61
2023/03/30 17:36:17;;;;;;;6.30;1.88;;;15.00;90.30;;;;;;5073627;28;20094;-60
2023/03/30 17:38:43;;;;;;;7.35;2.00;;;14.90;90.80;;;;;;5074395;28;20040;-61
2023/03/30 17:41:11;;;;;;;6.10;1.83;;;14.90;91.20;;;;;;5073016;28;20017;-60
2023/03/30 17:43:42;;;;;;;6.85;1.60;;;14.80;91.30;;;;;;5084226;28;20054;-61
2023/03/30 17:46:11;;;;;;;9.40;2.20;;;14.80;91.60;;;;;;5091794;28;20024;-61
2023/03/30 17:48:37;;;;;;;9.88;2.03;;;14.80;91.80;;;;;;5089690;28;20016;-60
2023/03/30 17:51:02;;;;;;;8.77;2.08;;;14.80;92.30;;;;;;5088260;28;20426;-60
2023/03/30 17:53:28;;;;;;;8.93;1.88;;;14.70;92.60;;;;;;5093009;28;20024;-58
2023/03/30 17:55:53;;;;;;;8.52;2.08;;;14.70;93.00;;;;;;5072874;28;20052;-61
2023/03/30 17:58:23;;;;;;;6.97;1.90;;;14.60;93.40;;;;;;5073441;28;20047;-60
2023/03/30 18:00:51;;;;;;;12.30;2.45;;;14.50;94.10;;;;;;5073125;28;20024;-58
2023/03/30 18:03:19;;;;;;;9.07;2.40;;;14.40;94.60;;;;;;5074804;28;20040;-59
2023/03/30 18:05:45;;;;;;;9.27;2.47;;;14.30;95.30;;;;;;5091882;28;20051;-61
2023/03/30 18:08:17;;;;;;;8.85;2.17;;;14.20;95.90;;;;;;5092683;28;20460;-61
2023/03/30 18:10:46;;;;;;;7.20;2.33;;;14.20;96.60;;;;;;5092958;28;20028;-60
2023/03/30 18:13:13;;;;;;;7.47;2.45;;;14.10;97.30;;;;;;5091466;28;20042;-61
2023/03/30 18:15:39;;;;;;;8.80;2.83;;;14.00;97.90;;;;;;5092317;28;20142;-62
2023/03/30 18:18:04;;;;;;;8.75;2.25;;;13.90;98.40;;;;;;5093214;28;20063;-61
2023/03/30 18:20:39;;;;;;;7.25;2.65;;;13.90;99.20;;;;;;5091750;28;20089;-61
2023/03/30 18:23:05;;;;;;;10.18;2.85;;;13.90;99.90;;;;;;5090121;28;20484;-61
2023/03/30 18:25:31;;;;;;;11.50;2.30;;;13.80;99.90;;;;;;5092871;28;20035;-60
2023/03/30 18:27:57;;;;;;;12.35;2.78;;;13.80;99.90;;;;;;5092729;28;20023;-60
2023/03/30 18:30:37;;;;;;;11.18;2.20;;;13.70;99.90;;;;;;5091981;28;20032;-61
2023/03/30 18:33:04;;;;;;;9.23;2.20;;;13.70;99.90;;;;;;5092836;28;20024;-61
2023/03/30 18:35:31;;;;;;;14.50;2.67;;;13.70;99.90;;;;;;5092469;28;20059;-61
2023/03/30 18:37:57;;;;;;;10.40;2.80;;;13.60;99.90;;;;;;5086100;28;20066;-60
2023/03/30 18:40:28;;;;;;;9.88;2.40;;;13.60;99.90;;;;;;5072124;28;20021;-61
2023/03/30 18:42:54;;;;;;;6.95;2.38;;;13.60;99.90;;;;;;5072494;28;20025;-61
2023/03/30 18:45:25;;;;;;;7.32;2.00;;;13.50;99.90;;;;;;5053641;28;20017;-61
2023/03/30 18:47:52;;;;;;;7.25;2.05;;;13.50;99.90;;;;;;5072373;28;20111;-60
2023/03/30 18:50:21;;;;;;;12.43;2.22;;;13.40;99.90;;;;;;5089826;28;20023;-61
2023/03/30 18:52:47;;;;;;;8.75;2.22;;;13.40;99.90;;;;;;5092689;28;20468;-60
2023/03/30 18:55:14;;;;;;;10.43;2.22;;;13.40;99.90;;;;;;5092054;28;20027;-61
2023/03/30 18:57:40;;;;;;;7.93;2.10;;;13.40;99.90;;;;;;5073158;28;20640;-60
2023/03/30 19:00:30;;;;;;;7.53;2.13;;;13.30;99.90;;;;;;5092172;28;20405;-61
2023/03/30 19:02:56;;;;;;;8.32;2.08;;;13.30;99.90;;;;;;5091854;28;20036;-60
2023/03/30 19:05:24;;;;;;;11.23;2.55;;;13.30;99.90;;;;;;5091453;28;20042;-61
2023/03/30 19:07:50;;;;;;;5.53;1.88;;;13.30;99.90;;;;;;5092046;28;20031;-61
2023/03/30 19:10:22;;;;;;;5.28;1.98;;;13.20;99.90;;;;;;5090103;28;20070;-60
2023/03/30 19:12:52;;;;;;;9.57;2.72;;;13.20;99.90;;;;;;5091435;28;20062;-61
2023/03/30 19:15:28;;;;;;;7.25;1.77;;;13.20;99.90;;;;;;5091933;28;20066;-60
2023/03/30 19:17:54;;;;;;;7.97;2.00;;;13.20;99.90;;;;;;5092095;28;20020;-61
2023/03/30 19:20:23;;;;;;;6.05;1.70;;;13.30;99.90;;;;;;5091178;28;20030;-61
2023/03/30 19:22:50;;;;;;;9.90;1.80;;;13.40;99.90;;;;;;5091516;28;20085;-60
